createdAt,value
2019-03-08T00:00:59.543Z,996.20
2019-03-08T00:01:59.625Z,996.34
2019-03-08T00:02:59.544Z,996.31
2019-03-08T00:03:59.510Z,996.27
2019-03-08T00:04:59.502Z,996.26
2019-03-08T00:05:59.579Z,996.41
2019-03-08T00:06:59.524Z,996.32
2019-03-08T00:07:59.475Z,996.26
2019-03-08T00:08:59.464Z,996.25
2019-03-08T00:09:59.451Z,996.30
2019-03-08T00:10:59.440Z,996.28
2019-03-08T00:11:59.433Z,996.30
2019-03-08T00:12:59.432Z,996.41
2019-03-08T00:13:59.433Z,996.33
2019-03-08T00:14:59.406Z,996.33
2019-03-08T00:15:59.390Z,996.39
2019-03-08T00:16:59.381Z,996.40
2019-03-08T00:17:59.355Z,996.42
2019-03-08T00:18:59.361Z,996.38
2019-03-08T00:19:59.365Z,996.37
2019-03-08T00:20:59.346Z,996.37
2019-03-08T00:21:59.502Z,996.47
2019-03-08T00:22:59.304Z,996.43
2019-03-08T00:23:59.297Z,996.45
2019-03-08T00:24:59.325Z,996.47
2019-03-08T00:25:59.376Z,996.34
2019-03-08T00:26:59.262Z,996.49
2019-03-08T00:27:59.297Z,996.44
2019-03-08T00:28:59.258Z,996.49
2019-03-08T00:29:59.285Z,996.53
2019-03-08T00:30:59.225Z,996.55
2019-03-08T00:31:59.194Z,996.58
2019-03-08T00:32:59.192Z,996.52
2019-03-08T00:33:59.202Z,996.60
2019-03-08T00:34:59.201Z,996.75
2019-03-08T00:35:59.173Z,996.60
2019-03-08T00:36:59.159Z,996.66
2019-03-08T00:37:59.180Z,996.66
2019-03-08T00:38:59.131Z,996.67
2019-03-08T00:39:59.111Z,996.64
2019-03-08T00:40:59.136Z,996.62
2019-03-08T00:41:59.088Z,996.73
2019-03-08T00:42:59.079Z,996.72
2019-03-08T00:43:59.059Z,996.82
2019-03-08T00:44:59.065Z,996.75
2019-03-08T00:45:59.040Z,996.77
2019-03-08T00:46:59.021Z,996.71
2019-03-08T00:47:59.045Z,996.73
2019-03-08T00:48:59.000Z,996.77
2019-03-08T00:49:59.006Z,996.77
2019-03-08T00:50:58.979Z,996.81
2019-03-08T00:51:59.001Z,996.80
2019-03-08T00:52:58.967Z,996.80
2019-03-08T00:53:58.948Z,996.77
2019-03-08T00:54:59.018Z,996.76
2019-03-08T00:55:59.039Z,996.71
2019-03-08T00:56:58.934Z,996.78
2019-03-08T00:57:58.971Z,996.77
2019-03-08T00:58:58.895Z,996.82
2019-03-08T00:59:58.881Z,996.87
2019-03-08T01:00:58.876Z,996.83
2019-03-08T01:01:58.859Z,996.91
2019-03-08T01:02:58.885Z,996.91
2019-03-08T01:03:58.839Z,996.99
2019-03-08T01:04:58.839Z,996.86
2019-03-08T01:05:58.831Z,996.93
2019-03-08T01:06:58.874Z,996.91
2019-03-08T01:07:58.804Z,996.88
2019-03-08T01:08:58.804Z,996.82
2019-03-08T01:09:58.874Z,996.99
2019-03-08T01:10:58.786Z,996.95
2019-03-08T01:11:58.763Z,996.97
2019-03-08T01:12:58.782Z,996.99
2019-03-08T01:13:58.790Z,997.02
2019-03-08T01:14:58.711Z,997.09
2019-03-08T01:15:58.699Z,997.01
2019-03-08T01:16:58.688Z,997.08
2019-03-08T01:17:58.681Z,997.12
2019-03-08T01:18:58.720Z,997.03
2019-03-08T01:19:58.679Z,997.04
2019-03-08T01:20:58.638Z,997.05
2019-03-08T01:21:58.653Z,997.07
2019-03-08T01:22:58.620Z,997.13
2019-03-08T01:23:59.063Z,997.11
2019-03-08T01:24:58.596Z,997.18
2019-03-08T01:25:58.622Z,997.10
2019-03-08T01:26:58.573Z,997.13
2019-03-08T01:27:58.598Z,997.16
2019-03-08T01:28:58.564Z,997.13
2019-03-08T01:29:58.544Z,997.15
2019-03-08T01:30:58.562Z,997.16
2019-03-08T01:31:58.524Z,997.15
2019-03-08T01:32:58.537Z,997.16
2019-03-08T01:33:58.507Z,997.24
2019-03-08T01:34:58.485Z,997.21
2019-03-08T01:35:58.478Z,997.22
2019-03-08T01:36:58.465Z,997.21
2019-03-08T01:37:58.454Z,997.26
2019-03-08T01:38:58.472Z,997.26
2019-03-08T01:39:58.431Z,997.28
2019-03-08T01:40:58.419Z,997.24
2019-03-08T01:41:58.420Z,997.26
2019-03-08T01:42:58.406Z,997.31
2019-03-08T01:43:58.411Z,997.33
2019-03-08T01:44:58.449Z,997.29
2019-03-08T01:45:58.390Z,997.36
2019-03-08T01:46:58.386Z,997.36
2019-03-08T01:47:58.342Z,997.31
2019-03-08T01:48:58.348Z,997.42
2019-03-08T01:49:58.311Z,997.37
2019-03-08T01:50:58.307Z,997.38
2019-03-08T01:51:58.306Z,997.37
2019-03-08T01:52:58.353Z,997.40
2019-03-08T01:53:58.317Z,997.39
2019-03-08T01:54:58.263Z,997.40
2019-03-08T01:55:58.362Z,997.43
2019-03-08T01:56:58.310Z,997.40
2019-03-08T01:57:58.242Z,997.45
2019-03-08T01:58:58.251Z,997.43
2019-03-08T01:59:58.239Z,997.47
2019-03-08T02:00:58.224Z,997.51
2019-03-08T02:01:58.202Z,997.52
2019-03-08T02:02:58.177Z,997.45
2019-03-08T02:03:58.160Z,997.52
2019-03-08T02:04:58.150Z,997.51
2019-03-08T02:05:58.180Z,997.56
2019-03-08T02:06:58.340Z,997.55
2019-03-08T02:07:58.111Z,997.56
2019-03-08T02:08:58.127Z,997.55
2019-03-08T02:09:58.119Z,997.63
2019-03-08T02:10:58.073Z,997.55
2019-03-08T02:11:58.093Z,997.61
2019-03-08T02:12:58.058Z,997.52
2019-03-08T02:13:58.086Z,997.61
2019-03-08T02:14:58.101Z,997.60
2019-03-08T02:15:58.022Z,997.60
2019-03-08T02:16:58.030Z,997.55
2019-03-08T02:17:58.064Z,997.70
2019-03-08T02:18:57.982Z,997.67
2019-03-08T02:19:58.087Z,997.64
2019-03-08T02:21:06.787Z,997.72
2019-03-08T02:21:58.985Z,997.70
2019-03-08T02:22:57.944Z,997.65
2019-03-08T02:23:57.969Z,997.69
2019-03-08T02:24:57.946Z,997.69
2019-03-08T02:25:58.051Z,997.80
2019-03-08T02:26:57.911Z,997.73
2019-03-08T02:27:57.925Z,997.65
2019-03-08T02:28:57.940Z,997.74
2019-03-08T02:29:57.877Z,997.65
2019-03-08T02:30:57.860Z,997.76
2019-03-08T02:31:57.930Z,997.75
2019-03-08T02:32:57.922Z,997.78
2019-03-08T02:33:57.837Z,997.81
2019-03-08T02:34:57.826Z,997.78
2019-03-08T02:35:57.800Z,997.82
2019-03-08T02:36:57.782Z,997.80
2019-03-08T02:37:57.797Z,997.80
2019-03-08T02:38:57.771Z,997.77
2019-03-08T02:39:57.829Z,997.72
2019-03-08T02:40:57.757Z,997.72
2019-03-08T02:41:57.740Z,997.76
2019-03-08T02:42:57.739Z,997.77
2019-03-08T02:43:57.753Z,997.88
2019-03-08T02:44:57.709Z,997.86
2019-03-08T02:45:57.696Z,997.86
2019-03-08T02:46:57.669Z,997.87
2019-03-08T02:47:57.680Z,997.82
2019-03-08T02:48:57.679Z,997.88
2019-03-08T02:49:57.647Z,997.96
2019-03-08T02:50:57.656Z,997.87
2019-03-08T02:51:57.651Z,997.96
2019-03-08T02:52:57.617Z,997.92
2019-03-08T02:53:57.598Z,997.91
2019-03-08T02:54:57.674Z,997.90
2019-03-08T02:55:57.642Z,997.90
2019-03-08T02:56:57.561Z,997.96
2019-03-08T02:57:57.595Z,997.96
2019-03-08T02:58:57.549Z,998.00
2019-03-08T02:59:57.525Z,998.00
2019-03-08T03:00:57.516Z,997.95
2019-03-08T03:01:57.533Z,998.02
2019-03-08T03:02:57.549Z,998.01
2019-03-08T03:03:57.509Z,998.06
2019-03-08T03:04:57.488Z,998.11
2019-03-08T03:05:57.469Z,998.04
2019-03-08T03:06:57.441Z,998.08
2019-03-08T03:07:57.464Z,998.07
2019-03-08T03:08:57.452Z,998.09
2019-03-08T03:09:57.518Z,998.09
2019-03-08T03:10:57.425Z,998.11
2019-03-08T03:11:57.406Z,998.13
2019-03-08T03:12:57.373Z,998.11
2019-03-08T03:13:57.511Z,998.09
2019-03-08T03:14:57.375Z,998.14
2019-03-08T03:15:57.345Z,998.17
2019-03-08T03:16:57.348Z,998.11
2019-03-08T03:17:57.353Z,998.19
2019-03-08T03:18:57.338Z,998.15
2019-03-08T03:19:57.321Z,998.16
2019-03-08T03:20:57.327Z,998.21
2019-03-08T03:21:57.285Z,998.18
2019-03-08T03:22:57.345Z,998.19
2019-03-08T03:23:57.267Z,998.23
2019-03-08T03:24:57.252Z,998.22
2019-03-08T03:25:57.382Z,998.22
2019-03-08T03:26:57.223Z,998.28
2019-03-08T03:27:57.268Z,998.34
2019-03-08T03:28:57.244Z,998.37
2019-03-08T03:29:57.228Z,998.27
2019-03-08T03:30:57.262Z,998.34
2019-03-08T03:31:57.198Z,998.35
2019-03-08T03:32:57.171Z,998.37
2019-03-08T03:33:57.175Z,998.37
2019-03-08T03:34:57.169Z,998.37
2019-03-08T03:35:57.146Z,998.44
2019-03-08T03:36:57.121Z,998.43
2019-03-08T03:37:57.108Z,998.51
2019-03-08T03:38:57.126Z,998.48
2019-03-08T03:39:57.099Z,998.54
2019-03-08T03:40:57.092Z,998.48
2019-03-08T03:41:57.052Z,998.51
2019-03-08T03:42:57.058Z,998.60
2019-03-08T03:43:57.063Z,998.61
2019-03-08T03:44:57.037Z,998.60
2019-03-08T03:45:57.025Z,998.66
2019-03-08T03:46:57.016Z,998.62
2019-03-08T03:47:57.024Z,998.64
2019-03-08T03:48:56.986Z,998.65
2019-03-08T03:49:57.026Z,998.59
2019-03-08T03:50:56.975Z,998.64
2019-03-08T03:51:56.965Z,998.68
2019-03-08T03:52:56.953Z,998.68
2019-03-08T03:53:56.916Z,998.64
2019-03-08T03:54:56.942Z,998.69
2019-03-08T03:55:57.093Z,998.73
2019-03-08T03:56:56.977Z,998.82
2019-03-08T03:57:56.889Z,998.82
2019-03-08T03:58:56.858Z,998.82
2019-03-08T03:59:56.853Z,998.82
2019-03-08T04:00:56.839Z,998.86
2019-03-08T04:01:56.854Z,998.83
2019-03-08T04:02:56.818Z,998.87
2019-03-08T04:03:56.820Z,998.96
2019-03-08T04:04:56.819Z,998.97
2019-03-08T04:05:57.082Z,999.00
2019-03-08T04:06:56.786Z,999.06
2019-03-08T04:07:56.760Z,999.16
2019-03-08T04:08:56.745Z,999.19
2019-03-08T04:09:56.729Z,999.27
2019-03-08T04:10:56.755Z,999.30
2019-03-08T04:11:56.719Z,999.31
2019-03-08T04:12:56.703Z,999.32
2019-03-08T04:13:56.730Z,999.30
2019-03-08T04:14:56.702Z,999.35
2019-03-08T04:15:56.689Z,999.37
2019-03-08T04:16:56.654Z,999.39
2019-03-08T04:17:56.654Z,999.35
2019-03-08T04:18:56.635Z,999.38
2019-03-08T04:19:56.650Z,999.41
2019-03-08T04:20:56.629Z,999.38
2019-03-08T04:21:56.615Z,999.42
2019-03-08T04:22:56.582Z,999.44
2019-03-08T04:23:56.591Z,999.41
2019-03-08T04:24:56.561Z,999.40
2019-03-08T04:25:56.575Z,999.44
2019-03-08T04:26:56.578Z,999.45
2019-03-08T04:27:56.576Z,999.43
2019-03-08T04:28:56.516Z,999.48
2019-03-08T04:29:56.764Z,999.56
2019-03-08T04:30:56.545Z,999.57
2019-03-08T04:31:56.493Z,999.62
2019-03-08T04:32:56.500Z,999.67
2019-03-08T04:33:56.466Z,999.63
2019-03-08T04:34:56.483Z,999.68
2019-03-08T04:35:56.467Z,999.70
2019-03-08T04:36:56.472Z,999.73
2019-03-08T04:37:56.426Z,999.70
2019-03-08T04:38:56.406Z,999.74
2019-03-08T04:39:56.390Z,999.78
2019-03-08T04:40:56.456Z,999.82
2019-03-08T04:41:56.462Z,999.82
2019-03-08T04:42:56.364Z,999.87
2019-03-08T04:43:56.371Z,999.90
2019-03-08T04:44:56.340Z,999.88
2019-03-08T04:45:56.409Z,999.96
2019-03-08T04:46:56.314Z,999.95
2019-03-08T04:47:56.311Z,999.98
2019-03-08T04:48:56.307Z,1000.02
2019-03-08T04:49:56.318Z,999.98
2019-03-08T04:50:56.305Z,1000.03
2019-03-08T04:51:56.285Z,1000.02
2019-03-08T04:52:56.318Z,1000.03
2019-03-08T04:53:56.231Z,1000.06
2019-03-08T04:54:56.229Z,1000.05
2019-03-08T04:55:56.372Z,1000.09
2019-03-08T04:56:56.222Z,1000.06
2019-03-08T04:57:56.241Z,1000.14
2019-03-08T04:58:56.236Z,1000.08
2019-03-08T04:59:56.288Z,1000.10
2019-03-08T05:00:56.226Z,1000.13
2019-03-08T05:01:56.154Z,1000.13
2019-03-08T05:02:56.136Z,1000.12
2019-03-08T05:03:56.141Z,1000.17
2019-03-08T05:04:56.126Z,1000.17
2019-03-08T05:05:56.110Z,1000.21
2019-03-08T05:06:56.110Z,1000.21
2019-03-08T05:07:56.076Z,1000.23
2019-03-08T05:08:56.093Z,1000.25
2019-03-08T05:09:56.105Z,1000.26
2019-03-08T05:10:56.074Z,1000.34
2019-03-08T05:11:56.031Z,1000.35
2019-03-08T05:12:56.051Z,1000.36
2019-03-08T05:13:56.025Z,1000.38
2019-03-08T05:14:56.051Z,1000.41
2019-03-08T05:15:56.049Z,1000.38
2019-03-08T05:16:56.040Z,1000.39
2019-03-08T05:17:55.962Z,1000.40
2019-03-08T05:18:55.965Z,1000.39
2019-03-08T05:19:55.958Z,1000.43
2019-03-08T05:20:55.931Z,1000.39
2019-03-08T05:21:55.936Z,1000.41
2019-03-08T05:22:55.967Z,1000.45
2019-03-08T05:23:55.916Z,1000.47
2019-03-08T05:24:56.060Z,1000.48
2019-03-08T05:25:55.978Z,1000.49
2019-03-08T05:26:55.963Z,1000.52
2019-03-08T05:27:55.883Z,1000.53
2019-03-08T05:28:55.925Z,1000.59
2019-03-08T05:29:55.860Z,1000.55
2019-03-08T05:30:55.829Z,1000.54
2019-03-08T05:31:55.851Z,1000.59
2019-03-08T05:32:55.808Z,1000.59
2019-03-08T05:33:55.784Z,1000.61
2019-03-08T05:34:55.792Z,1000.60
2019-03-08T05:35:55.798Z,1000.56
2019-03-08T05:36:55.797Z,1000.56
2019-03-08T05:37:55.754Z,1000.60
2019-03-08T05:38:55.720Z,1000.63
2019-03-08T05:39:55.727Z,1000.61
2019-03-08T05:40:55.756Z,1000.61
2019-03-08T05:41:55.765Z,1000.64
2019-03-08T05:42:55.687Z,1000.70
2019-03-08T05:43:55.674Z,1000.69
2019-03-08T05:44:55.657Z,1000.81
2019-03-08T05:45:55.700Z,1000.76
2019-03-08T05:46:55.651Z,1000.82
2019-03-08T05:47:55.639Z,1000.80
2019-03-08T05:48:55.607Z,1000.81
2019-03-08T05:49:55.613Z,1000.81
2019-03-08T05:50:55.609Z,1000.85
2019-03-08T05:51:55.721Z,1000.90
2019-03-08T05:52:55.564Z,1000.93
2019-03-08T05:53:55.582Z,1000.97
2019-03-08T05:54:55.548Z,1000.96
2019-03-08T05:55:55.593Z,1001.00
2019-03-08T05:56:55.576Z,1001.02
2019-03-08T05:57:55.538Z,1001.06
2019-03-08T05:58:55.871Z,1001.09
2019-03-08T05:59:55.515Z,1001.08
2019-03-08T06:00:55.506Z,1001.12
2019-03-08T06:01:55.535Z,1001.11
2019-03-08T06:02:55.473Z,1001.09
2019-03-08T06:03:55.512Z,1001.13
2019-03-08T06:04:55.441Z,1001.14
2019-03-08T06:05:55.450Z,1001.16
2019-03-08T06:06:55.426Z,1001.18
2019-03-08T06:07:55.430Z,1001.22
2019-03-08T06:08:55.395Z,1001.22
2019-03-08T06:09:55.418Z,1001.26
2019-03-08T06:10:55.382Z,1001.29
2019-03-08T06:11:55.702Z,1001.30
2019-03-08T06:12:55.339Z,1001.35
2019-03-08T06:13:55.348Z,1001.36
2019-03-08T06:14:55.330Z,1001.37
2019-03-08T06:15:55.344Z,1001.42
2019-03-08T06:16:55.326Z,1001.40
2019-03-08T06:17:56.465Z,1001.40
2019-03-08T06:18:55.286Z,1001.45
2019-03-08T06:19:55.293Z,1001.48
2019-03-08T06:20:55.259Z,1001.51
2019-03-08T06:21:55.443Z,1001.54
2019-03-08T06:22:55.310Z,1001.61
2019-03-08T06:23:55.218Z,1001.63
2019-03-08T06:24:55.213Z,1001.63
2019-03-08T06:25:55.274Z,1001.67
2019-03-08T06:26:55.315Z,1001.70
2019-03-08T06:27:55.175Z,1001.71
2019-03-08T06:28:55.189Z,1001.80
2019-03-08T06:29:55.265Z,1001.81
2019-03-08T06:30:55.139Z,1001.81
2019-03-08T06:31:55.197Z,1001.84
2019-03-08T06:32:55.113Z,1001.86
2019-03-08T06:33:55.117Z,1001.92
2019-03-08T06:34:55.094Z,1001.96
2019-03-08T06:35:55.094Z,1001.96
2019-03-08T06:36:55.157Z,1001.98
2019-03-08T06:37:55.077Z,1002.08
2019-03-08T06:38:55.089Z,1002.10
2019-03-08T06:39:55.072Z,1002.10
2019-03-08T06:40:55.038Z,1002.17
2019-03-08T06:41:55.045Z,1002.18
2019-03-08T06:42:55.017Z,1002.24
2019-03-08T06:43:55.046Z,1002.29
2019-03-08T06:44:54.973Z,1002.28
2019-03-08T06:45:55.052Z,1002.35
2019-03-08T06:46:54.957Z,1002.35
2019-03-08T06:47:54.978Z,1002.39
2019-03-08T06:48:54.933Z,1002.38
2019-03-08T06:49:54.947Z,1002.48
2019-03-08T06:50:54.930Z,1002.52
2019-03-08T06:51:54.934Z,1002.53
2019-03-08T06:52:54.935Z,1002.53
2019-03-08T06:53:54.889Z,1002.56
2019-03-08T06:54:54.898Z,1002.58
2019-03-08T06:55:55.008Z,1002.59
2019-03-08T06:56:54.837Z,1002.55
2019-03-08T06:57:54.940Z,1002.65
2019-03-08T06:58:54.826Z,1002.66
2019-03-08T06:59:54.814Z,1002.68
2019-03-08T07:00:54.819Z,1002.69
2019-03-08T07:01:54.793Z,1002.70
2019-03-08T07:02:54.837Z,1002.74
2019-03-08T07:03:54.762Z,1002.77
2019-03-08T07:04:54.759Z,1002.79
2019-03-08T07:05:54.930Z,1002.85
2019-03-08T07:06:54.944Z,1002.88
2019-03-08T07:07:54.876Z,1002.87
2019-03-08T07:08:54.733Z,1002.92
2019-03-08T07:09:54.977Z,1002.95
2019-03-08T07:10:54.888Z,1002.99
2019-03-08T07:11:54.748Z,1003.05
2019-03-08T07:13:02.796Z,1003.12
2019-03-08T07:13:55.657Z,1003.15
2019-03-08T07:14:54.662Z,1003.14
2019-03-08T07:15:54.628Z,1003.16
2019-03-08T07:16:54.635Z,1003.17
2019-03-08T07:17:54.696Z,1003.25
2019-03-08T07:18:54.610Z,1003.25
2019-03-08T07:19:54.594Z,1003.24
2019-03-08T07:20:54.619Z,1003.28
2019-03-08T07:21:54.562Z,1003.28
2019-03-08T07:22:54.579Z,1003.34
2019-03-08T07:23:54.574Z,1003.34
2019-03-08T07:24:54.531Z,1003.32
2019-03-08T07:25:59.203Z,1003.37
2019-03-08T07:26:54.556Z,1003.43
2019-03-08T07:27:54.522Z,1003.43
2019-03-08T07:28:54.552Z,1003.47
2019-03-08T07:29:54.517Z,1003.48
2019-03-08T07:30:57.947Z,1003.51
2019-03-08T07:31:54.571Z,1003.56
2019-03-08T07:32:54.498Z,1003.59
2019-03-08T07:33:54.461Z,1003.66
2019-03-08T07:34:54.423Z,1003.69
2019-03-08T07:35:54.424Z,1003.72
2019-03-08T07:36:54.434Z,1003.71
2019-03-08T07:37:54.483Z,1003.76
2019-03-08T07:38:54.371Z,1003.75
2019-03-08T07:39:54.361Z,1003.77
2019-03-08T07:40:54.354Z,1003.76
2019-03-08T07:41:54.352Z,1003.84
2019-03-08T07:42:54.357Z,1003.83
2019-03-08T07:43:54.318Z,1003.87
2019-03-08T07:44:54.322Z,1003.89
2019-03-08T07:45:54.289Z,1003.95
2019-03-08T07:46:54.279Z,1003.94
2019-03-08T07:47:54.269Z,1003.97
2019-03-08T07:48:54.314Z,1004.00
2019-03-08T07:49:54.288Z,1004.03
2019-03-08T07:50:54.277Z,1004.06
2019-03-08T07:51:54.226Z,1004.04
2019-03-08T07:52:54.228Z,1004.07
2019-03-08T07:53:54.253Z,1004.11
2019-03-08T07:54:54.193Z,1004.14
2019-03-08T07:55:59.149Z,1004.16
2019-03-08T07:56:54.167Z,1004.15
2019-03-08T07:57:54.194Z,1004.18
2019-03-08T07:58:54.192Z,1004.17
2019-03-08T07:59:54.275Z,1004.23
2019-03-08T08:00:54.132Z,1004.27
2019-03-08T08:01:54.125Z,1004.23
2019-03-08T08:03:02.998Z,1004.34
2019-03-08T08:03:55.146Z,1004.31
2019-03-08T08:04:54.077Z,1004.35
2019-03-08T08:05:57.919Z,1004.33
2019-03-08T08:06:54.055Z,1004.36
2019-03-08T08:07:54.082Z,1004.40
2019-03-08T08:08:54.043Z,1004.45
2019-03-08T08:09:54.016Z,1004.49
2019-03-08T08:10:54.015Z,1004.56
2019-03-08T08:11:54.006Z,1004.57
2019-03-08T08:12:53.986Z,1004.62
2019-03-08T08:13:53.987Z,1004.61
2019-03-08T08:14:54.026Z,1004.64
2019-03-08T08:15:53.962Z,1004.65
2019-03-08T08:16:53.946Z,1004.67
2019-03-08T08:17:53.987Z,1004.70
2019-03-08T08:18:53.950Z,1004.75
2019-03-08T08:19:55.602Z,1004.75
2019-03-08T08:20:53.938Z,1004.73
2019-03-08T08:21:53.887Z,1004.77
2019-03-08T08:22:53.877Z,1004.78
2019-03-08T08:23:53.884Z,1004.81
2019-03-08T08:24:53.851Z,1004.84
2019-03-08T08:25:53.910Z,1004.83
2019-03-08T08:26:53.825Z,1004.85
2019-03-08T08:27:53.830Z,1004.89
2019-03-08T08:28:55.905Z,1004.94
2019-03-08T08:29:53.803Z,1004.97
2019-03-08T08:30:53.808Z,1004.97
2019-03-08T08:31:53.815Z,1004.96
2019-03-08T08:32:53.764Z,1004.96
2019-03-08T08:33:53.764Z,1004.99
2019-03-08T08:34:53.741Z,1005.02
2019-03-08T08:35:53.729Z,1004.99
2019-03-08T08:36:53.716Z,1005.02
2019-03-08T08:37:53.744Z,1005.06
2019-03-08T08:38:53.724Z,1005.09
2019-03-08T08:39:53.711Z,1005.11
2019-03-08T08:40:53.677Z,1005.14
2019-03-08T08:41:53.657Z,1005.22
2019-03-08T08:42:53.658Z,1005.21
2019-03-08T08:43:53.653Z,1005.26
2019-03-08T08:44:53.634Z,1005.27
2019-03-08T08:45:53.628Z,1005.24
2019-03-08T08:46:53.776Z,1005.21
2019-03-08T08:47:53.600Z,1005.24
2019-03-08T08:48:53.602Z,1005.24
2019-03-08T08:49:55.125Z,1005.33
2019-03-08T08:50:53.557Z,1005.33
2019-03-08T08:51:53.565Z,1005.35
2019-03-08T08:52:53.565Z,1005.37
2019-03-08T08:53:53.563Z,1005.38
2019-03-08T08:54:53.666Z,1005.34
2019-03-08T08:55:53.541Z,1005.39
2019-03-08T08:56:53.547Z,1005.44
2019-03-08T08:57:53.537Z,1005.43
2019-03-08T08:58:53.468Z,1005.41
2019-03-08T08:59:53.874Z,1005.44
2019-03-08T09:00:53.450Z,1005.46
2019-03-08T09:01:53.476Z,1005.48
2019-03-08T09:02:53.443Z,1005.50
2019-03-08T09:03:53.482Z,1005.58
2019-03-08T09:04:53.408Z,1005.53
2019-03-08T09:05:53.440Z,1005.59
2019-03-08T09:06:53.382Z,1005.57
2019-03-08T09:07:53.369Z,1005.61
2019-03-08T09:08:53.379Z,1005.61
2019-03-08T09:09:53.350Z,1005.65
2019-03-08T09:10:53.340Z,1005.64
2019-03-08T09:11:53.327Z,1005.65
2019-03-08T09:12:53.313Z,1005.68
2019-03-08T09:13:53.312Z,1005.74
2019-03-08T09:14:53.346Z,1005.83
2019-03-08T09:15:53.350Z,1005.81
2019-03-08T09:16:53.280Z,1005.87
2019-03-08T09:17:53.263Z,1005.88
2019-03-08T09:18:53.243Z,1005.85
2019-03-08T09:19:53.282Z,1005.86
2019-03-08T09:20:53.222Z,1005.84
2019-03-08T09:21:54.090Z,1005.80
2019-03-08T09:22:53.208Z,1005.88
2019-03-08T09:23:53.962Z,1005.89
2019-03-08T09:24:53.196Z,1005.92
2019-03-08T09:25:53.266Z,1005.96
2019-03-08T09:26:53.189Z,1005.94
2019-03-08T09:27:53.160Z,1006.00
2019-03-08T09:28:53.129Z,1006.01
2019-03-08T09:29:53.162Z,1005.98
2019-03-08T09:30:53.174Z,1005.99
2019-03-08T09:31:53.108Z,1006.02
2019-03-08T09:32:59.175Z,1006.07
2019-03-08T09:33:54.078Z,1006.06
2019-03-08T09:34:53.106Z,1006.06
2019-03-08T09:35:53.061Z,1006.04
2019-03-08T09:36:53.052Z,1006.08
2019-03-08T09:37:53.090Z,1006.03
2019-03-08T09:38:53.065Z,1006.06
2019-03-08T09:39:53.013Z,1006.05
2019-03-08T09:40:53.005Z,1006.13
2019-03-08T09:41:52.990Z,1006.12
2019-03-08T09:42:52.996Z,1006.12
2019-03-08T09:43:53.028Z,1006.13
2019-03-08T09:44:52.955Z,1006.18
2019-03-08T09:45:53.035Z,1006.23
2019-03-08T09:46:52.946Z,1006.28
2019-03-08T09:47:52.920Z,1006.27
2019-03-08T09:48:52.915Z,1006.26
2019-03-08T09:49:52.925Z,1006.36
2019-03-08T09:50:52.920Z,1006.36
2019-03-08T09:51:52.880Z,1006.40
2019-03-08T09:52:52.943Z,1006.41
2019-03-08T09:53:52.850Z,1006.43
2019-03-08T09:54:52.853Z,1006.42
2019-03-08T09:55:52.957Z,1006.41
2019-03-08T09:56:52.836Z,1006.39
2019-03-08T09:57:52.804Z,1006.43
2019-03-08T09:58:52.802Z,1006.42
2019-03-08T09:59:52.791Z,1006.43
2019-03-08T10:00:52.847Z,1006.46
2019-03-08T10:01:52.769Z,1006.45
2019-03-08T10:02:52.769Z,1006.49
2019-03-08T10:03:52.743Z,1006.47
2019-03-08T10:04:52.724Z,1006.49
2019-03-08T10:05:52.987Z,1006.46
2019-03-08T10:06:52.704Z,1006.54
2019-03-08T10:07:52.730Z,1006.55
2019-03-08T10:08:52.691Z,1006.52
2019-03-08T10:09:52.677Z,1006.56
2019-03-08T10:10:52.662Z,1006.55
2019-03-08T10:11:52.678Z,1006.53
2019-03-08T10:12:52.639Z,1006.63
2019-03-08T10:13:52.666Z,1006.57
2019-03-08T10:14:52.652Z,1006.60
2019-03-08T10:15:52.614Z,1006.57
2019-03-08T10:16:53.029Z,1006.61
2019-03-08T10:17:52.621Z,1006.61
2019-03-08T10:18:52.596Z,1006.60
2019-03-08T10:19:52.557Z,1006.66
2019-03-08T10:20:52.604Z,1006.68
2019-03-08T10:21:53.032Z,1006.73
2019-03-08T10:22:52.545Z,1006.75
2019-03-08T10:23:52.513Z,1006.81
2019-03-08T10:24:52.530Z,1006.81
2019-03-08T10:25:52.587Z,1006.83
2019-03-08T10:26:52.485Z,1006.84
2019-03-08T10:27:52.491Z,1006.85
2019-03-08T10:28:52.468Z,1006.90
2019-03-08T10:29:52.466Z,1006.88
2019-03-08T10:30:52.442Z,1006.90
2019-03-08T10:31:54.195Z,1006.95
2019-03-08T10:32:53.489Z,1007.00
2019-03-08T10:33:52.402Z,1007.03
2019-03-08T10:34:52.403Z,1007.03
2019-03-08T10:35:52.754Z,1007.00
2019-03-08T10:36:52.410Z,1007.05
2019-03-08T10:37:52.379Z,1007.09
2019-03-08T10:38:52.344Z,1007.10
2019-03-08T10:39:52.391Z,1007.08
2019-03-08T10:40:52.337Z,1007.14
2019-03-08T10:41:52.323Z,1007.16
2019-03-08T10:42:52.301Z,1007.20
2019-03-08T10:43:52.308Z,1007.24
2019-03-08T10:44:52.300Z,1007.20
2019-03-08T10:45:52.325Z,1007.27
2019-03-08T10:46:52.264Z,1007.24
2019-03-08T10:47:56.087Z,1007.29
2019-03-08T10:48:52.275Z,1007.28
2019-03-08T10:49:55.669Z,1007.32
2019-03-08T10:50:52.221Z,1007.27
2019-03-08T10:51:52.204Z,1007.33
2019-03-08T10:52:52.206Z,1007.37
2019-03-08T10:54:00.393Z,1007.37
2019-03-08T10:54:53.176Z,1007.44
2019-03-08T10:55:52.252Z,1007.44
2019-03-08T10:56:52.152Z,1007.45
2019-03-08T10:57:52.155Z,1007.46
2019-03-08T10:58:52.134Z,1007.50
2019-03-08T10:59:52.208Z,1007.48
2019-03-08T11:00:52.124Z,1007.50
2019-03-08T11:01:52.174Z,1007.48
2019-03-08T11:02:52.086Z,1007.44
2019-03-08T11:03:52.080Z,1007.50
2019-03-08T11:04:52.153Z,1007.54
2019-03-08T11:05:52.055Z,1007.53
2019-03-08T11:06:52.148Z,1007.55
2019-03-08T11:07:52.036Z,1007.57
2019-03-08T11:08:52.010Z,1007.62
2019-03-08T11:09:52.009Z,1007.61
2019-03-08T11:10:52.027Z,1007.62
2019-03-08T11:11:51.989Z,1007.61
2019-03-08T11:12:51.992Z,1007.61
2019-03-08T11:13:51.955Z,1007.71
2019-03-08T11:14:51.972Z,1007.67
2019-03-08T11:15:51.942Z,1007.70
2019-03-08T11:16:52.064Z,1007.75
2019-03-08T11:17:51.938Z,1007.73
2019-03-08T11:18:51.896Z,1007.68
2019-03-08T11:19:51.928Z,1007.67
2019-03-08T11:20:51.992Z,1007.64
2019-03-08T11:21:51.930Z,1007.72
2019-03-08T11:22:51.859Z,1007.74
2019-03-08T11:23:51.893Z,1007.73
2019-03-08T11:24:51.829Z,1007.79
2019-03-08T11:25:51.929Z,1007.79
2019-03-08T11:26:51.829Z,1007.80
2019-03-08T11:27:51.841Z,1007.80
2019-03-08T11:28:51.787Z,1007.81
2019-03-08T11:29:51.774Z,1007.81
2019-03-08T11:30:54.243Z,1007.79
2019-03-08T11:31:51.762Z,1007.80
2019-03-08T11:32:51.798Z,1007.80
2019-03-08T11:33:51.824Z,1007.77
2019-03-08T11:34:52.355Z,1007.72
2019-03-08T11:35:51.719Z,1007.73
2019-03-08T11:36:51.701Z,1007.74
2019-03-08T11:37:51.810Z,1007.73
2019-03-08T11:38:51.714Z,1007.88
2019-03-08T11:39:51.661Z,1007.78
2019-03-08T11:40:51.675Z,1007.79
2019-03-08T11:41:51.684Z,1007.78
2019-03-08T11:42:51.648Z,1007.78
2019-03-08T11:43:51.619Z,1007.78
2019-03-08T11:44:51.618Z,1007.82
2019-03-08T11:45:51.614Z,1007.82
2019-03-08T11:46:51.594Z,1007.87
2019-03-08T11:47:51.861Z,1007.87
2019-03-08T11:48:51.579Z,1007.87
2019-03-08T11:49:51.698Z,1007.93
2019-03-08T11:50:51.539Z,1007.97
2019-03-08T11:51:51.540Z,1008.01
2019-03-08T11:52:51.541Z,1008.00
2019-03-08T11:53:56.196Z,1007.97
2019-03-08T11:54:52.502Z,1008.01
2019-03-08T11:55:51.581Z,1008.04
2019-03-08T11:56:56.166Z,1008.05
2019-03-08T11:57:52.495Z,1008.08
2019-03-08T11:58:51.511Z,1008.12
2019-03-08T11:59:51.497Z,1008.13
2019-03-08T12:00:53.148Z,1008.21
2019-03-08T12:01:51.473Z,1008.22
2019-03-08T12:02:51.420Z,1008.19
2019-03-08T12:03:51.412Z,1008.22
2019-03-08T12:04:51.507Z,1008.20
2019-03-08T12:05:51.389Z,1008.24
2019-03-08T12:06:51.438Z,1008.24
2019-03-08T12:07:51.347Z,1008.25
2019-03-08T12:08:51.392Z,1008.19
2019-03-08T12:09:51.363Z,1008.18
2019-03-08T12:10:51.361Z,1008.12
2019-03-08T12:11:51.302Z,1008.16
2019-03-08T12:12:51.329Z,1008.15
2019-03-08T12:13:51.303Z,1008.20
2019-03-08T12:14:51.297Z,1008.16